地図

経路データ

SID SEASON NUMBER BASIN SUBBASIN NAME ISO_TIME NATURE LAT LON WMO_WIND WMO_PRES WMO_AGENCY TRACK_TYPE DIST2LAND LANDFALL IFLAG USA_AGENCY USA_ATCF_ID USA_LAT USA_LON USA_RECORD USA_STATUS USA_WIND USA_PRES USA_SSHS USA_R34_NE USA_R34_SE USA_R34_SW USA_R34_NW USA_R50_NE USA_R50_SE USA_R50_SW USA_R50_NW USA_R64_NE USA_R64_SE USA_R64_SW USA_R64_NW USA_POCI USA_ROCI USA_RMW USA_EYE TOKYO_LAT TOKYO_LON TOKYO_GRADE TOKYO_WIND TOKYO_PRES TOKYO_R50_DIR TOKYO_R50_LONG TOKYO_R50_SHORT TOKYO_R30_DIR TOKYO_R30_LONG TOKYO_R30_SHORT TOKYO_LAND CMA_LAT CMA_LON CMA_CAT CMA_WIND CMA_PRES HKO_LAT HKO_LON HKO_CAT HKO_WIND HKO_PRES NEWDELHI_LAT NEWDELHI_LON NEWDELHI_GRADE NEWDELHI_WIND NEWDELHI_PRES NEWDELHI_CI NEWDELHI_DP NEWDELHI_POCI REUNION_LAT REUNION_LON REUNION_TYPE REUNION_WIND REUNION_PRES REUNION_TNUM REUNION_CI REUNION_RMW REUNION_R34_NE REUNION_R34_SE REUNION_R34_SW REUNION_R34_NW REUNION_R50_NE REUNION_R50_SE REUNION_R50_SW REUNION_R50_NW REUNION_R64_NE REUNION_R64_SE REUNION_R64_SW REUNION_R64_NW BOM_LAT BOM_LON BOM_TYPE BOM_WIND BOM_PRES BOM_TNUM BOM_CI BOM_RMW BOM_R34_NE BOM_R34_SE BOM_R34_SW BOM_R34_NW BOM_R50_NE BOM_R50_SE BOM_R50_SW BOM_R50_NW BOM_R64_NE BOM_R64_SE BOM_R64_SW BOM_R64_NW BOM_ROCI BOM_POCI BOM_EYE BOM_POS_METHOD BOM_PRES_METHOD NADI_LAT NADI_LON NADI_CAT NADI_WIND NADI_PRES WELLINGTON_LAT WELLINGTON_LON WELLINGTON_WIND WELLINGTON_PRES DS824_LAT DS824_LON DS824_STAGE DS824_WIND DS824_PRES TD9636_LAT TD9636_LON TD9636_STAGE TD9636_WIND TD9636_PRES TD9635_LAT TD9635_LON TD9635_WIND TD9635_PRES TD9635_ROCI NEUMANN_LAT NEUMANN_LON NEUMANN_CLASS NEUMANN_WIND NEUMANN_PRES MLC_LAT MLC_LON MLC_CLASS MLC_WIND MLC_PRES USA_GUST BOM_GUST BOM_GUST_PER REUNION_GUST REUNION_GUST_PER USA_SEAHGT USA_SEARAD_NE USA_SEARAD_SE USA_SEARAD_SW USA_SEARAD_NW STORM_SPEED STORM_DIR
1963213N11321 1963 67 NA NA ARLENE 1963-07-31 18:00:00 TS 11.0000 -39.4000 25 hurdat_atl main 1511 1444 O_____________ hurdat_atl AL011963 11.0000 -39.4000 TD 25 -1 15 269
1963213N11321 1963 67 NA NA ARLENE 1963-07-31 21:00:00 TS 10.9905 -40.1701 main 1435 1370 P_____________ AL011963 10.9905 -40.1701 TD 25 -1 15 270
1963213N11321 1963 67 NA NA ARLENE 1963-08-01 00:00:00 TS 11.0000 -40.9000 25 hurdat_atl main 1370 1315 O_____________ hurdat_atl AL011963 11.0000 -40.9000 TD 25 -1 14 272
1963213N11321 1963 67 NA NA ARLENE 1963-08-01 03:00:00 TS 11.0423 -41.5650 main 1306 1259 P_____________ AL011963 11.0423 -41.5650 TD 25 -1 13 274
1963213N11321 1963 67 NA NA ARLENE 1963-08-01 06:00:00 TS 11.1000 -42.2000 25 hurdat_atl main 1259 1207 O_____________ hurdat_atl AL011963 11.1000 -42.2000 TD 25 -1 13 275
1963213N11321 1963 67 NA NA ARLENE 1963-08-01 09:00:00 TS 11.1424 -42.8501 main 1199 1156 P_____________ AL011963 11.1424 -42.8501 TD 25 -1 13 274
1963213N11321 1963 67 NA NA ARLENE 1963-08-01 12:00:00 TS 11.2000 -43.5000 25 hurdat_atl main 1156 1115 O_____________ hurdat_atl AL011963 11.2000 -43.5000 TD 25 -1 13 276
1963213N11321 1963 67 NA NA ARLENE 1963-08-01 15:00:00 TS 11.2774 -44.1501 main 1107 1070 P_____________ AL011963 11.2774 -44.1501 TD 27 -1 13 279
1963213N11321 1963 67 NA NA ARLENE 1963-08-01 18:00:00 TS 11.4000 -44.8000 30 hurdat_atl main 1070 1035 O_____________ hurdat_atl AL011963 11.4000 -44.8000 TD 30 -1 13 283
1963213N11321 1963 67 NA NA ARLENE 1963-08-01 21:00:00 TS 11.5699 -45.4501 main 1037 1013 P_____________ AL011963 11.5699 -45.4501 TD 35 0 13 287
1963213N11321 1963 67 NA NA ARLENE 1963-08-02 00:00:00 TS 11.8000 -46.1000 40 hurdat_atl main 1016 1000 O_____________ hurdat_atl AL011963 11.8000 -46.1000 TS 40 0 14 291
1963213N11321 1963 67 NA NA ARLENE 1963-08-02 03:00:00 TS 12.0624 -46.7502 main 1002 985 P_____________ AL011963 12.0624 -46.7502 TS 45 0 14 295
1963213N11321 1963 67 NA NA ARLENE 1963-08-02 06:00:00 TS 12.4000 -47.4000 50 hurdat_atl main 988 982 O_____________ hurdat_atl AL011963 12.4000 -47.4000 TS 50 0 15 301
1963213N11321 1963 67 NA NA ARLENE 1963-08-02 09:00:00 TS 12.8199 -48.0576 main 984 984 P_____________ AL011963 12.8199 -48.0576 TS 52 0 16 305
1963213N11321 1963 67 NA NA ARLENE 1963-08-02 12:00:00 TS 13.3000 -48.7000 55 hurdat_atl main 1002 1002 O_____________ hurdat_atl AL011963 13.3000 -48.7000 TS 55 0 16 309
1963213N11321 1963 67 NA NA ARLENE 1963-08-02 15:00:00 TS 13.8223 -49.3075 main 1026 1026 P_____________ AL011963 13.8223 -49.3075 TS 57 0 15 311
1963213N11321 1963 67 NA NA ARLENE 1963-08-02 18:00:00 TS 14.3000 -49.9000 60 987 hurdat_atl main 1052 1047 O_____________ hurdat_atl AL011963 14.3000 -49.9000 TS 60 987 0 14 306
1963213N11321 1963 67 NA NA ARLENE 1963-08-02 21:00:00 TS 14.6523 -50.4927 main 1065 1057 P_____________ AL011963 14.6523 -50.4927 TS 57 991 0 13 297
1963213N11321 1963 67 NA NA ARLENE 1963-08-03 00:00:00 TS 14.9000 -51.1000 55 996 hurdat_atl main 1063 1058 O_____________ hurdat_atl AL011963 14.9000 -51.1000 TS 55 996 0 13 289
1963213N11321 1963 67 NA NA ARLENE 1963-08-03 03:00:00 TS 15.0722 -51.7278 main 1066 1055 P_____________ AL011963 15.0722 -51.7278 TS 52 997 0 13 283
1963213N11321 1963 67 NA NA ARLENE 1963-08-03 06:00:00 TS 15.2000 -52.4000 50 hurdat_atl main 1059 999 I_____________ hurdat_atl AL011963 15.2000 -52.4000 TS 50 998 0 14 281
1963213N11321 1963 67 NA NA ARLENE 1963-08-03 09:00:00 TS 15.3425 -53.1426 main 999 938 P_____________ AL011963 15.3425 -53.1426 TS 47 999 0 15 282
1963213N11321 1963 67 NA NA ARLENE 1963-08-03 12:00:00 TS 15.5000 -53.9000 45 1000 hurdat_atl main 938 890 O_____________ hurdat_atl AL011963 15.5000 -53.9000 TS 45 1000 0 15 284
1963213N11321 1963 67 NA NA ARLENE 1963-08-03 15:00:00 TS 15.6922 -54.6076 main 890 848 P_____________ AL011963 15.6922 -54.6076 TS 45 0 14 287
1963213N11321 1963 67 NA NA ARLENE 1963-08-03 18:00:00 TS 15.9000 -55.3000 45 hurdat_atl main 848 810 O_____________ hurdat_atl AL011963 15.9000 -55.3000 TS 45 0 14 286
1963213N11321 1963 67 NA NA ARLENE 1963-08-03 21:00:00 TS 16.0773 -56.0078 main 811 780 P_____________ AL011963 16.0773 -56.0078 TS 42 0 14 287
1963213N11321 1963 67 NA NA ARLENE 1963-08-04 00:00:00 TS 16.3000 -56.7000 40 hurdat_atl main 780 768 O_____________ hurdat_atl AL011963 16.3000 -56.7000 TS 40 0 14 293
1963213N11321 1963 67 NA NA ARLENE 1963-08-04 03:00:00 TS 16.6122 -57.3503 main 766 765 P_____________ AL011963 16.6122 -57.3503 TS 40 0 14 299
1963213N11321 1963 67 NA NA ARLENE 1963-08-04 06:00:00 TS 17.0000 -58.0000 40 hurdat_atl main 776 736 O_____________ hurdat_atl AL011963 17.0000 -58.0000 TS 40 0 15 302
1963213N11321 1963 67 NA NA ARLENE 1963-08-04 09:00:00 TS 17.4199 -58.7003 main 736 656 P_____________ AL011963 17.4199 -58.7003 TS 37 0 16 304
1963213N11321 1963 67 NA NA ARLENE 1963-08-04 12:00:00 TS 17.9000 -59.4000 35 1005 hurdat_atl main 656 590 O_____________ hurdat_atl AL011963 17.9000 -59.4000 TS 35 1005 0 17 308
1963213N11321 1963 67 NA NA ARLENE 1963-08-04 15:00:00 TS 18.4422 -60.0577 main 580 520 P_____________ AL011963 18.4422 -60.0577 TS 32 -1 17 312
1963213N11321 1963 67 NA NA ARLENE 1963-08-04 18:00:00 TS 19.0000 -60.7000 30 hurdat_atl main 520 468 O_____________ hurdat_atl AL011963 19.0000 -60.7000 TD 30 -1 16 312
1963213N11321 1963 67 NA NA ARLENE 1963-08-04 21:00:00 TS 19.5298 -61.3576 main 458 418 P_____________ AL011963 19.5298 -61.3576 TD 30 -1 16 309
1963213N11321 1963 67 NA NA ARLENE 1963-08-05 00:00:00 TS 20.0000 -62.0000 30 hurdat_atl main 418 379 O_____________ hurdat_atl AL011963 20.0000 -62.0000 TD 30 -1 15 305
1963213N11321 1963 67 NA NA ARLENE 1963-08-05 03:00:00 TS 20.3723 -62.6230 main 386 359 P_____________ AL011963 20.3723 -62.6230 TD 27 -1 13 302
1963213N11321 1963 67 NA NA ARLENE 1963-08-05 06:00:00 TS 20.7000 -63.2000 25 hurdat_atl main 359 352 O_____________ hurdat_atl AL011963 20.7000 -63.2000 TD 25 -1 12 304
1963213N11321 1963 67 NA NA ARLENE 1963-08-05 09:00:00 TS 21.0572 -63.7153 main 361 355 P_____________ AL011963 21.0572 -63.7153 TD 25 -1 12 307
1963213N11321 1963 67 NA NA ARLENE 1963-08-05 12:00:00 TS 21.4000 -64.2000 25 1009 hurdat_atl main 366 362 O_____________ hurdat_atl AL011963 21.4000 -64.2000 TD 25 1009 -1 11 305
1963213N11321 1963 67 NA NA ARLENE 1963-08-05 15:00:00 TS 21.6923 -64.7004 main 380 378 P_____________ AL011963 21.6923 -64.7004 TD 25 -1 11 303
1963213N11321 1963 67 NA NA ARLENE 1963-08-05 18:00:00 TS 22.0000 -65.2000 25 hurdat_atl main 404 403 O_____________ hurdat_atl AL011963 22.0000 -65.2000 TD 25 -1 12 307
1963213N11321 1963 67 NA NA ARLENE 1963-08-05 21:00:00 TS 22.3924 -65.7075 main 447 447 P_____________ AL011963 22.3924 -65.7075 TD 25 -1 12 311
1963213N11321 1963 67 NA NA ARLENE 1963-08-06 00:00:00 ET 22.8000 -66.2000 25 hurdat_atl main 492 492 O_____________ hurdat_atl AL011963 22.8000 -66.2000 EX 25 -4 12 312
1963213N11321 1963 67 NA NA ARLENE 1963-08-06 03:00:00 ET 23.1723 -66.6577 main 512 511 P_____________ AL011963 23.1723 -66.6577 EX 25 -4 11 310
1963213N11321 1963 67 NA NA ARLENE 1963-08-06 06:00:00 ET 23.5000 -67.1000 25 hurdat_atl main 521 517 O_____________ hurdat_atl AL011963 23.5000 -67.1000 EX 25 -4 10 306
1963213N11321 1963 67 NA NA ARLENE 1963-08-06 09:00:00 ET 23.7649 -67.5578 main 530 526 P_____________ AL011963 23.7649 -67.5578 EX 25 -4 10 301
1963213N11321 1963 67 NA NA ARLENE 1963-08-06 12:00:00 ET 24.0000 -68.0000 25 1012 hurdat_atl main 533 529 O_____________ hurdat_atl AL011963 24.0000 -68.0000 EX 25 1012 -4 9 302
1963213N11321 1963 67 NA NA ARLENE 1963-08-06 15:00:00 ET 24.2499 -68.4152 main 540 540 P_____________ AL011963 24.2499 -68.4152 EX 27 -4 9 304
1963213N11321 1963 67 NA NA ARLENE 1963-08-06 18:00:00 ET 24.5000 -68.8000 30 hurdat_atl main 557 553 O_____________ hurdat_atl AL011963 24.5000 -68.8000 EX 30 -4 8 305
1963213N11321 1963 67 NA NA ARLENE 1963-08-06 21:00:00 ET 24.7349 -69.1653 main 551 551 P_____________ AL011963 24.7349 -69.1653 EX 30 -4 8 308
1963213N11321 1963 67 NA NA ARLENE 1963-08-07 00:00:00 TS 25.0000 -69.5000 30 hurdat_atl main 555 551 O_____________ hurdat_atl AL011963 25.0000 -69.5000 TD 30 -1 9 315
1963213N11321 1963 67 NA NA ARLENE 1963-08-07 03:00:00 TS 25.3350 -69.8373 main 562 562 P_____________ AL011963 25.3350 -69.8373 TD 30 -1 9 322
1963213N11321 1963 67 NA NA ARLENE 1963-08-07 06:00:00 TS 25.7000 -70.1000 30 hurdat_atl main 583 583 O_____________ hurdat_atl AL011963 25.7000 -70.1000 TD 30 -1 8 334
1963213N11321 1963 67 NA NA ARLENE 1963-08-07 09:00:00 TS 26.0574 -70.2377 main 617 612 P_____________ AL011963 26.0574 -70.2377 TD 30 -1 7 345
1963213N11321 1963 67 NA NA ARLENE 1963-08-07 12:00:00 TS 26.4000 -70.3000 30 hurdat_atl main 642 642 O_____________ hurdat_atl AL011963 26.4000 -70.3000 TD 30 -1 7 350
1963213N11321 1963 67 NA NA ARLENE 1963-08-07 15:00:00 TS 26.7150 -70.3650 main 668 668 P_____________ AL011963 26.7150 -70.3650 TD 32 -1 6 352
1963213N11321 1963 67 NA NA ARLENE 1963-08-07 18:00:00 TS 27.0000 -70.4000 35 hurdat_atl main 699 699 O_____________ hurdat_atl AL011963 27.0000 -70.4000 TS 35 0 6 356
1963213N11321 1963 67 NA NA ARLENE 1963-08-07 21:00:00 TS 27.2650 -70.4150 main 730 730 P_____________ AL011963 27.2650 -70.4150 TS 40 0 5 2
1963213N11321 1963 67 NA NA ARLENE 1963-08-08 00:00:00 TS 27.5000 -70.4000 45 hurdat_atl main 751 751 O_____________ hurdat_atl AL011963 27.5000 -70.4000 TS 45 0 4 5
1963213N11321 1963 67 NA NA ARLENE 1963-08-08 03:00:00 TS 27.7075 -70.3799 main 772 772 P_____________ AL011963 27.7075 -70.3799 TS 50 0 4 12
1963213N11321 1963 67 NA NA ARLENE 1963-08-08 06:00:00 TS 27.9000 -70.3000 55 hurdat_atl main 796 796 O_____________ hurdat_atl AL011963 27.9000 -70.3000 TS 55 0 4 28
1963213N11321 1963 67 NA NA ARLENE 1963-08-08 09:00:00 TS 28.1000 -70.1375 main 824 824 P_____________ AL011963 28.1000 -70.1375 TS 60 0 5 41
1963213N11321 1963 67 NA NA ARLENE 1963-08-08 12:00:00 TS 28.3000 -69.9000 65 992 hurdat_atl main 852 852 O_____________ hurdat_atl AL011963 28.3000 -69.9000 HU 65 992 1 6 49
1963213N11321 1963 67 NA NA ARLENE 1963-08-08 15:00:00 TS 28.4849 -69.6297 main 884 884 P_____________ AL011963 28.4849 -69.6297 HU 70 986 1 7 53
1963213N11321 1963 67 NA NA ARLENE 1963-08-08 18:00:00 TS 28.7000 -69.3000 75 981 hurdat_atl main 916 916 O_____________ hurdat_atl AL011963 28.7000 -69.3000 HU 75 981 1 8 52
1963213N11321 1963 67 NA NA ARLENE 1963-08-08 21:00:00 TS 28.9774 -68.9224 main 957 956 P_____________ AL011963 28.9774 -68.9224 HU 75 1 9 49
1963213N11321 1963 67 NA NA ARLENE 1963-08-09 00:00:00 TS 29.3000 -68.5000 75 hurdat_atl main 962 962 O_____________ hurdat_atl AL011963 29.3000 -68.5000 HU 75 1 10 49
1963213N11321 1963 67 NA NA ARLENE 1963-08-09 03:00:00 TS 29.5970 -68.0936 main 969 969 P_____________ AL011963 29.5970 -68.0936 HU 77 1 11 48
1963213N11321 1963 67 NA NA ARLENE 1963-08-09 06:00:00 TS 30.0000 -67.6000 80 hurdat_atl main 979 978 O_____________ hurdat_atl AL011963 30.0000 -67.6000 HU 80 1 13 44
1963213N11321 1963 67 NA NA ARLENE 1963-08-09 09:00:00 TS 30.5671 -67.0293 main 978 978 P_____________ AL011963 30.5671 -67.0293 HU 85 2 18 43
1963213N11321 1963 67 NA NA ARLENE 1963-08-09 12:00:00 TS 31.3000 -66.2000 90 979 hurdat_atl main 995 995 O_____________ hurdat_atl AL011963 31.3000 -66.2000 HU 90 979 2 24 47
1963213N11321 1963 67 NA NA ARLENE 1963-08-09 15:00:00 TS 32.1725 -64.9913 main 1045 1045 P_____________ AL011963 32.1725 -64.9913 HU 94 975 2 27 50
1963213N11321 1963 67 NA NA ARLENE 1963-08-09 15:30:00 TS 32.3000 -64.8000 95 975 hurdat_atl main 1057 1061 O_____________ hurdat_atl AL011963 32.3000 -64.8000 L HU 95 975 2 21 53
1963213N11321 1963 67 NA NA ARLENE 1963-08-09 18:00:00 TS 32.8000 -64.0000 100 970 hurdat_atl main 1105 1090 O_____________ hurdat_atl AL011963 32.8000 -64.0000 HU 100 970 3 24 50
1963213N11321 1963 67 NA NA ARLENE 1963-08-09 21:00:00 TS 33.6874 -62.8145 main 1091 1040 P_____________ AL011963 33.6874 -62.8145 HU 100 969 3 28 48
1963213N11321 1963 67 NA NA ARLENE 1963-08-10 00:00:00 TS 34.7000 -61.5000 100 969 hurdat_atl main 1032 983 O_____________ hurdat_atl AL011963 34.7000 -61.5000 HU 100 969 3 28 48
1963213N11321 1963 67 NA NA ARLENE 1963-08-10 03:00:00 TS 35.5557 -60.2608 main 977 949 P_____________ AL011963 35.5557 -60.2608 HU 97 973 3 27 50
1963213N11321 1963 67 NA NA ARLENE 1963-08-10 06:00:00 TS 36.4000 -59.0000 95 hurdat_atl main 953 931 I_____________ hurdat_atl AL011963 36.4000 -59.0000 HU 95 977 2 27 51
1963213N11321 1963 67 NA NA ARLENE 1963-08-10 09:00:00 TS 37.2924 -57.6338 main 925 869 P_____________ AL011963 37.2924 -57.6338 HU 90 981 2 28 50
1963213N11321 1963 67 NA NA ARLENE 1963-08-10 12:00:00 TS 38.2000 -56.3000 85 985 hurdat_atl main 873 842 O_____________ hurdat_atl AL011963 38.2000 -56.3000 HU 85 985 2 27 48
1963213N11321 1963 67 NA NA ARLENE 1963-08-10 15:00:00 TS 39.0827 -55.1224 main 838 746 P_____________ AL011963 39.0827 -55.1224 HU 80 1 25 45
1963213N11321 1963 67 NA NA ARLENE 1963-08-10 18:00:00 TS 40.0000 -54.0000 75 hurdat_atl main 734 623 O_____________ hurdat_atl AL011963 40.0000 -54.0000 HU 75 1 26 42
1963213N11321 1963 67 NA NA ARLENE 1963-08-10 21:00:00 TS 41.0210 -52.8215 main 623 535 P_____________ AL011963 41.0210 -52.8215 HU 70 1 27 42
1963213N11321 1963 67 NA NA ARLENE 1963-08-11 00:00:00 TS 42.0000 -51.6000 65 hurdat_atl main 526 476 O_____________ hurdat_atl AL011963 42.0000 -51.6000 HU 65 1 26 45
1963213N11321 1963 67 NA NA ARLENE 1963-08-11 03:00:00 TS 42.8298 -50.3569 main 476 462 P_____________ AL011963 42.8298 -50.3569 HU 60 0 24 52
1963213N11321 1963 67 NA NA ARLENE 1963-08-11 06:00:00 ET 43.5000 -49.0000 55 hurdat_atl main 475 475 O_____________ hurdat_atl AL011963 43.5000 -49.0000 EX 55 -4 24 61
1963213N11321 1963 67 NA NA ARLENE 1963-08-11 09:00:00 ET 44.0017 -47.4484 main 534 534 P_____________ AL011963 44.0017 -47.4484 EX 52 -4 25 69
1963213N11321 1963 67 NA NA ARLENE 1963-08-11 12:00:00 ET 44.4000 -45.8000 50 hurdat_atl main 618 618 O_____________ hurdat_atl AL011963 44.4000 -45.8000 EX 50 -4 25 70
1963213N11321 1963 67 NA NA ARLENE 1963-08-11 15:00:00 ET 44.8677 -44.1005 main 712 712 P_____________ AL011963 44.8677 -44.1005 EX 47 -4 25 71
1963213N11321 1963 67 NA NA ARLENE 1963-08-11 18:00:00 ET 45.2000 -42.5000 45 hurdat_atl main 812 812 O_____________ hurdat_atl AL011963 45.2000 -42.5000 EX 45 -4 21 79
1963213N11321 1963 67 NA NA ARLENE 1963-08-11 21:00:00 ET 45.2713 -41.1863 main 903 903 P_____________ AL011963 45.2713 -41.1863 EX 45 -4 18 90
1963213N11321 1963 67 NA NA ARLENE 1963-08-12 00:00:00 ET 45.2000 -40.0000 45 hurdat_atl main 995 995 O_____________ hurdat_atl AL011963 45.2000 -40.0000 EX 45 -4 17 93
1963213N11321 1963 67 NA NA ARLENE 1963-08-12 03:00:00 ET 45.1735 -38.7533 main 1083 1083 P_____________ AL011963 45.1735 -38.7533 EX 42 -4 18 96
1963213N11321 1963 67 NA NA ARLENE 1963-08-12 06:00:00 ET 45.0000 -37.5000 40 hurdat_atl main 1187 1187 O_____________ hurdat_atl AL011963 45.0000 -37.5000 EX 40 -4 18 110
1963213N11321 1963 67 NA NA ARLENE 1963-08-12 09:00:00 ET 44.5540 -36.3633 main 1283 1283 P_____________ AL011963 44.5540 -36.3633 EX 37 -4 20 119
1963213N11321 1963 67 NA NA ARLENE 1963-08-12 12:00:00 ET 44.0000 -35.0000 35 hurdat_atl main 1411 1411 O_____________ hurdat_atl AL011963 44.0000 -35.0000 EX 35 -4 24 114
1963213N11321 1963 67 NA NA ARLENE 1963-08-12 15:00:00 ET 43.5665 -33.2747 main 1553 1553 P_____________ AL011963 43.5665 -33.2747 EX 35 -4 31 109
1963213N11321 1963 67 NA NA ARLENE 1963-08-12 18:00:00 ET 43.0000 -31.0000 35 hurdat_atl main 1750 1542 O_____________ hurdat_atl AL011963 43.0000 -31.0000 EX 35 -4 41 111
1963213N11321 1963 67 NA NA ARLENE 1963-08-12 21:00:00 ET 42.0878 -27.9866 main 1526 1314 P_____________ AL011963 42.0878 -27.9866 EX 32 -4 49 114
1963213N11321 1963 67 NA NA ARLENE 1963-08-13 00:00:00 ET 41.0000 -25.0000 30 hurdat_atl main 1309 1163 O_____________ hurdat_atl AL011963 41.0000 -25.0000 EX 30 -4 44 119
1963213N11321 1963 67 NA NA ARLENE 1963-08-13 03:00:00 ET 39.9879 -22.8637 main 1154 1000 P_____________ AL011963 39.9879 -22.8637 EX 30 -4 37 123
1963213N11321 1963 67 NA NA ARLENE 1963-08-13 06:00:00 ET 39.0000 -21.0000 30 hurdat_atl main 991 819 O_____________ hurdat_atl AL011963 39.0000 -21.0000 EX 30 -4 37 122
1963213N11321 1963 67 NA NA ARLENE 1963-08-13 09:00:00 ET 38.0053 -18.7722 main 812 690 P_____________ AL011963 38.0053 -18.7722 EX 30 -4 37 122
1963213N11321 1963 67 NA NA ARLENE 1963-08-13 12:00:00 ET 37.0000 -17.0000 30 hurdat_atl main 685 651 O_____________ hurdat_atl AL011963 37.0000 -17.0000 EX 30 -4 29 136
1963213N11321 1963 67 NA NA ARLENE 1963-08-13 15:00:00 ET 35.9198 -16.2076 main 653 650 P_____________ AL011963 35.9198 -16.2076 EX 30 -4 22 158
1963213N11321 1963 67 NA NA ARLENE 1963-08-13 18:00:00 ET 35.0000 -16.0000 30 hurdat_atl main 666 655 O_____________ hurdat_atl AL011963 35.0000 -16.0000 EX 30 -4 15 173
1963213N11321 1963 67 NA NA ARLENE 1963-08-13 21:00:00 ET 34.4018 -15.9724 main 655 614 P_____________ AL011963 34.4018 -15.9724 EX 27 -4 10 179
1963213N11321 1963 67 NA NA ARLENE 1963-08-14 00:00:00 ET 34.0000 -16.0000 25 hurdat_atl main 614 O_____________ hurdat_atl AL011963 34.0000 -16.0000 EX 25 -4 8 0

IBTrACS Databaseについて

本データベースは、米国NOAAが公開する1842年以降の世界の熱帯低気圧のベストトラックデータアーカイブInternational Best Track Archive for Climate Stewardship (IBTrACS)を、ウェブで閲覧しやすい形式に変換したものです。

最終更新日:2021-12-01